createdAt,value
2022-10-11T00:02:26.373Z,12.85
2022-10-11T00:04:54.124Z,14.98
2022-10-11T00:07:22.929Z,15.52
2022-10-11T00:09:50.398Z,23.67
2022-10-11T00:12:17.870Z,21.33
2022-10-11T00:14:45.298Z,19.45
2022-10-11T00:17:12.694Z,15.82
2022-10-11T00:19:40.161Z,18.80
2022-10-11T00:22:07.743Z,14.32
2022-10-11T00:24:36.600Z,19.67
2022-10-11T00:27:04.246Z,21.05
2022-10-11T00:29:31.684Z,14.80
2022-10-11T00:31:59.351Z,24.00
2022-10-11T00:34:26.864Z,25.58
2022-10-11T00:36:54.377Z,16.35
2022-10-11T00:39:21.957Z,16.25
2022-10-11T00:41:50.742Z,11.23
2022-10-11T00:44:19.668Z,22.30
2022-10-11T00:46:54.987Z,11.85
2022-10-11T00:49:26.227Z,14.10
2022-10-11T00:51:55.967Z,34.45
2022-10-11T00:54:25.340Z,14.82
2022-10-11T00:56:57.157Z,16.02
2022-10-11T00:59:27.249Z,17.52
2022-10-11T01:01:54.697Z,27.58
2022-10-11T01:04:22.498Z,16.73
2022-10-11T01:06:50.404Z,11.80
2022-10-11T01:11:45.498Z,17.45
2022-10-11T01:14:30.600Z,12.40
2022-10-11T01:17:01.875Z,27.48
2022-10-11T01:19:39.415Z,19.98
2022-10-11T01:22:16.208Z,11.90
2022-10-11T01:24:51.641Z,22.20
2022-10-11T01:27:40.215Z,17.67
2022-10-11T01:30:25.267Z,20.98
2022-10-11T01:32:58.469Z,19.30
2022-10-11T01:35:27.936Z,25.52
2022-10-11T01:37:58.151Z,16.88
2022-10-11T01:40:28.149Z,17.05
2022-10-11T01:42:56.149Z,13.13
2022-10-11T01:45:25.484Z,17.45
2022-10-11T01:48:02.216Z,17.33
2022-10-11T01:50:33.851Z,9.95
2022-10-11T01:53:04.944Z,22.40
2022-10-11T01:55:38.314Z,17.85
2022-10-11T01:58:10.752Z,14.52
2022-10-11T02:00:45.883Z,11.95
2022-10-11T02:03:22.853Z,14.52
2022-10-11T02:05:52.688Z,19.67
2022-10-11T02:08:22.403Z,19.55
2022-10-11T02:10:52.886Z,10.55
2022-10-11T02:13:24.183Z,19.65
2022-10-11T02:15:54.139Z,12.55
2022-10-11T02:18:22.920Z,14.45
2022-10-11T02:20:51.309Z,11.45
2022-10-11T02:23:21.759Z,19.40
2022-10-11T02:25:50.078Z,17.55
2022-10-11T02:28:20.512Z,13.35
2022-10-11T02:30:49.195Z,19.42
2022-10-11T02:33:22.350Z,14.50
2022-10-11T02:35:54.293Z,18.35
2022-10-11T02:38:22.999Z,20.00
2022-10-11T02:40:55.975Z,25.27
2022-10-11T02:43:29.048Z,14.52
2022-10-11T02:45:58.821Z,15.93
2022-10-11T02:48:29.370Z,17.02
2022-10-11T02:50:57.254Z,12.25
2022-10-11T02:55:52.895Z,19.00
2022-10-11T02:58:20.597Z,13.93
2022-10-11T03:00:48.380Z,14.65
2022-10-11T03:03:15.868Z,14.88
2022-10-11T03:05:44.714Z,18.70
2022-10-11T03:08:14.196Z,17.58
2022-10-11T03:10:41.719Z,18.23
2022-10-11T03:13:09.284Z,17.95
2022-10-11T03:15:36.755Z,17.92
2022-10-11T03:18:04.621Z,14.90
2022-10-11T03:20:32.116Z,15.52
2022-10-11T03:23:00.988Z,12.43
2022-10-11T03:25:29.196Z,18.45
2022-10-11T03:27:56.626Z,16.20
2022-10-11T03:30:24.119Z,12.60
2022-10-11T03:32:51.564Z,14.77
2022-10-11T03:35:19.164Z,14.98
2022-10-11T03:37:46.648Z,24.13
2022-10-11T03:40:15.610Z,16.25
2022-10-11T03:42:43.103Z,12.57
2022-10-11T03:45:11.306Z,15.45
2022-10-11T03:47:39.390Z,13.80
2022-10-11T03:50:07.059Z,20.10
2022-10-11T03:52:34.563Z,11.82
2022-10-11T03:55:02.011Z,17.55
2022-10-11T03:57:30.826Z,14.32
2022-10-11T03:59:58.243Z,9.18
2022-10-11T04:02:25.742Z,29.25
2022-10-11T04:04:53.168Z,12.23
2022-10-11T04:07:20.748Z,18.65
2022-10-11T04:09:48.326Z,16.00
2022-10-11T04:12:15.821Z,15.25
2022-10-11T04:14:44.782Z,18.88
2022-10-11T04:17:12.268Z,16.02
2022-10-11T04:19:39.850Z,15.20
2022-10-11T04:22:07.452Z,19.75
2022-10-11T04:24:34.972Z,20.77
2022-10-11T04:27:02.507Z,15.63
2022-10-11T04:29:32.633Z,19.95
2022-10-11T04:32:01.728Z,12.43
2022-10-11T04:34:29.238Z,25.75
2022-10-11T04:36:56.752Z,12.35
2022-10-11T04:39:24.197Z,15.90
2022-10-11T04:41:51.624Z,17.00
2022-10-11T04:44:19.036Z,12.55
2022-10-11T04:46:46.454Z,20.15
2022-10-11T04:49:15.313Z,21.90
2022-10-11T04:51:42.797Z,21.65
2022-10-11T04:54:10.366Z,19.40
2022-10-11T04:56:37.806Z,18.17
2022-10-11T04:59:05.294Z,18.15
2022-10-11T05:01:32.726Z,21.70
2022-10-11T05:04:00.151Z,13.82
2022-10-11T05:06:28.955Z,15.88
2022-10-11T05:08:56.458Z,14.38
2022-10-11T05:11:23.917Z,26.83
2022-10-11T05:13:51.332Z,15.50
2022-10-11T05:16:18.793Z,10.43
2022-10-11T05:18:46.221Z,13.57
2022-10-11T05:21:16.446Z,17.70
2022-10-11T05:23:45.387Z,15.45
2022-10-11T05:26:12.848Z,19.75
2022-10-11T05:28:40.425Z,14.00
2022-10-11T05:31:08.162Z,13.75
2022-10-11T05:33:35.619Z,16.98
2022-10-11T05:36:03.538Z,15.50
2022-10-11T05:38:31.285Z,20.35
2022-10-11T05:41:01.713Z,18.98
2022-10-11T05:43:29.500Z,12.85
2022-10-11T05:45:57.230Z,10.65
2022-10-11T05:48:26.626Z,16.75
2022-10-11T05:50:54.372Z,19.25
2022-10-11T05:53:21.792Z,20.42
2022-10-11T05:55:49.250Z,23.33
2022-10-11T05:58:18.621Z,26.38
2022-10-11T06:00:46.067Z,15.45
2022-10-11T06:03:14.413Z,38.35
2022-10-11T06:05:42.175Z,22.27
2022-10-11T06:08:11.118Z,20.02
2022-10-11T06:10:39.098Z,18.63
2022-10-11T06:13:07.216Z,18.85
2022-10-11T06:15:35.983Z,17.13
2022-10-11T06:18:03.399Z,23.95
2022-10-11T06:20:30.910Z,16.38
2022-10-11T06:22:59.203Z,35.67
2022-10-11T06:25:26.646Z,19.98
2022-10-11T06:27:54.221Z,34.80
2022-10-11T06:30:21.810Z,22.65
2022-10-11T06:32:50.811Z,28.10
2022-10-11T06:35:18.441Z,20.25
2022-10-11T06:37:45.905Z,31.80
2022-10-11T06:40:13.444Z,28.90
2022-10-11T06:42:40.924Z,16.00
2022-10-11T06:45:08.770Z,22.92
2022-10-11T06:47:36.310Z,14.02
2022-10-11T06:50:06.253Z,20.98
2022-10-11T06:52:33.730Z,25.83
2022-10-11T06:55:01.126Z,22.02
2022-10-11T06:57:29.151Z,25.75
2022-10-11T06:59:57.181Z,20.35
2022-10-11T07:02:24.681Z,18.20
2022-10-11T07:04:52.085Z,24.23
2022-10-11T07:07:20.830Z,18.45
2022-10-11T07:09:48.291Z,24.08
2022-10-11T07:12:16.138Z,26.83
2022-10-11T07:14:43.598Z,16.50
2022-10-11T07:17:11.197Z,21.60
2022-10-11T07:19:38.622Z,19.88
2022-10-11T07:22:06.161Z,22.80
2022-10-11T07:24:34.967Z,23.27
2022-10-11T07:27:03.164Z,27.23
2022-10-11T07:29:30.656Z,29.45
2022-10-11T07:31:58.069Z,39.22
2022-10-11T07:34:25.528Z,29.65
2022-10-11T07:36:53.054Z,27.45
2022-10-11T07:39:20.558Z,43.90
2022-10-11T07:41:49.306Z,52.45
2022-10-11T07:44:16.739Z,28.15
2022-10-11T07:46:44.177Z,41.63
2022-10-11T07:49:11.589Z,45.17
2022-10-11T07:51:38.976Z,33.47
2022-10-11T07:54:07.562Z,42.72
2022-10-11T07:56:35.480Z,31.02
2022-10-11T07:59:04.790Z,44.90
2022-10-11T08:01:33.063Z,39.97
2022-10-11T08:04:00.786Z,41.35
2022-10-11T08:06:31.528Z,53.83
2022-10-11T08:09:00.349Z,41.28
2022-10-11T08:11:29.110Z,54.70
2022-10-11T08:13:56.640Z,47.58
2022-10-11T08:16:25.865Z,60.25
2022-10-11T08:18:54.388Z,56.10
2022-10-11T08:21:21.888Z,61.28
2022-10-11T08:26:17.013Z,54.33
2022-10-11T08:28:44.692Z,40.15
2022-10-11T08:31:13.295Z,82.07
2022-10-11T08:33:42.334Z,58.20
2022-10-11T08:36:10.774Z,44.17
2022-10-11T08:38:39.079Z,57.80
2022-10-11T08:41:15.330Z,45.53
2022-10-11T08:43:45.863Z,52.17
2022-10-11T08:46:15.158Z,39.65
2022-10-11T08:48:45.858Z,41.40
2022-10-11T08:51:16.344Z,41.53
2022-10-11T08:53:47.417Z,43.45
2022-10-11T08:56:16.032Z,45.00
2022-10-11T08:58:46.199Z,35.83
2022-10-11T09:01:17.723Z,38.95
2022-10-11T09:03:47.321Z,32.80
2022-10-11T09:06:18.493Z,35.80
2022-10-11T09:08:52.825Z,43.65
2022-10-11T09:11:26.390Z,31.17
2022-10-11T09:14:06.358Z,40.75
2022-10-11T09:16:42.541Z,29.67
2022-10-11T09:19:22.592Z,24.98
2022-10-11T09:21:53.102Z,36.10
2022-10-11T09:24:26.088Z,24.67
2022-10-11T09:26:56.320Z,26.52
2022-10-11T09:29:30.474Z,23.08
2022-10-11T09:31:59.202Z,36.20
2022-10-11T09:34:32.301Z,24.45
2022-10-11T09:37:05.262Z,30.65
2022-10-11T09:39:34.143Z,29.83
2022-10-11T09:42:02.772Z,22.50
2022-10-11T09:44:30.845Z,24.00
2022-10-11T09:46:58.445Z,27.17
2022-10-11T09:49:29.724Z,20.80
2022-10-11T09:51:59.756Z,25.55
2022-10-11T09:54:38.382Z,26.02
2022-10-11T09:57:06.021Z,23.33
2022-10-11T09:59:35.427Z,18.45
2022-10-11T10:02:22.073Z,22.73
2022-10-11T10:04:56.364Z,16.93
2022-10-11T10:07:25.349Z,21.40
2022-10-11T10:09:53.673Z,20.02
2022-10-11T10:12:22.825Z,20.80
2022-10-11T10:14:57.523Z,20.02
2022-10-11T10:17:24.975Z,26.65
2022-10-11T10:19:54.125Z,19.33
2022-10-11T10:22:23.707Z,25.55
2022-10-11T10:24:52.983Z,22.25
2022-10-11T10:27:22.062Z,20.25
2022-10-11T10:30:13.119Z,19.48
2022-10-11T10:32:48.320Z,18.90
2022-10-11T10:35:27.016Z,17.48
2022-10-11T10:37:59.675Z,15.32
2022-10-11T10:40:33.999Z,17.23
2022-10-11T10:43:01.423Z,20.35
2022-10-11T10:45:33.554Z,15.48
2022-10-11T10:48:09.401Z,19.10
2022-10-11T10:50:43.302Z,20.00
2022-10-11T10:53:19.416Z,22.85
2022-10-11T10:55:49.515Z,24.23
2022-10-11T10:58:24.960Z,31.88
2022-10-11T11:00:55.584Z,22.25
2022-10-11T11:03:25.050Z,21.13
2022-10-11T11:05:56.196Z,13.10
2022-10-11T11:08:32.688Z,13.32
2022-10-11T11:11:04.772Z,16.50
2022-10-11T11:13:36.976Z,15.25
2022-10-11T11:16:12.000Z,18.23
2022-10-11T11:18:42.426Z,10.57
2022-10-11T11:21:16.921Z,15.57
2022-10-11T11:23:49.431Z,23.90
2022-10-11T11:26:23.254Z,15.68
2022-10-11T11:28:58.241Z,13.90
2022-10-11T11:31:32.112Z,13.80
2022-10-11T11:34:03.292Z,20.65
2022-10-11T11:36:35.059Z,20.05
2022-10-11T11:39:03.444Z,11.05
2022-10-11T11:41:35.860Z,16.85
2022-10-11T11:44:05.980Z,24.30
2022-10-11T11:46:34.899Z,16.92
2022-10-11T11:49:03.782Z,33.22
2022-10-11T11:51:33.317Z,15.68
2022-10-11T11:54:06.203Z,16.05
2022-10-11T11:56:46.303Z,20.80
2022-10-11T11:59:17.890Z,10.90
2022-10-11T12:01:47.964Z,17.75
2022-10-11T12:04:20.195Z,20.35
2022-10-11T12:07:15.360Z,18.88
2022-10-11T12:09:44.417Z,25.83
2022-10-11T12:12:27.326Z,13.57
2022-10-11T12:15:03.461Z,16.15
2022-10-11T12:17:30.965Z,12.63
2022-10-11T12:20:19.500Z,15.52
2022-10-11T12:23:00.264Z,12.40
2022-10-11T12:25:33.902Z,14.77
2022-10-11T12:28:03.103Z,13.95
2022-10-11T12:30:50.735Z,13.40
2022-10-11T12:33:21.086Z,14.88
2022-10-11T12:35:51.388Z,13.82
2022-10-11T12:38:20.715Z,10.52
2022-10-11T12:40:49.028Z,9.43
2022-10-11T12:43:32.218Z,12.90
2022-10-11T12:46:14.570Z,9.18
2022-10-11T12:48:46.708Z,14.13
2022-10-11T12:51:28.988Z,7.95
2022-10-11T12:54:26.669Z,8.80
2022-10-11T12:57:00.416Z,8.95
2022-10-11T12:59:32.116Z,9.15
2022-10-11T13:02:00.458Z,12.48
2022-10-11T13:04:28.957Z,13.63
2022-10-11T13:07:01.116Z,11.40
2022-10-11T13:09:32.910Z,8.68
2022-10-11T13:12:04.060Z,7.78
2022-10-11T13:14:36.348Z,10.63
2022-10-11T13:17:08.757Z,9.20
2022-10-11T13:19:37.816Z,12.77
2022-10-11T13:22:06.298Z,11.07
2022-10-11T13:24:37.904Z,8.23
2022-10-11T13:27:06.008Z,10.15
2022-10-11T13:29:36.194Z,12.70
2022-10-11T13:32:06.051Z,7.85
2022-10-11T13:34:37.440Z,9.30
2022-10-11T13:37:05.123Z,7.93
2022-10-11T13:39:36.478Z,8.43
2022-10-11T13:42:04.464Z,9.80
2022-10-11T13:44:33.455Z,17.05
2022-10-11T13:47:02.976Z,10.18
2022-10-11T13:49:37.427Z,9.88
2022-10-11T13:52:07.463Z,8.48
2022-10-11T13:54:54.313Z,6.30
2022-10-11T13:59:49.188Z,15.50
2022-10-11T14:02:22.136Z,7.30
2022-10-11T14:04:50.217Z,9.27
2022-10-11T14:07:21.516Z,8.77
2022-10-11T14:09:49.173Z,11.98
2022-10-11T14:12:38.464Z,11.82
2022-10-11T14:15:08.085Z,11.68
2022-10-11T14:17:44.239Z,11.73
2022-10-11T14:20:17.873Z,5.60
2022-10-11T14:22:45.824Z,11.85
2022-10-11T14:25:14.519Z,8.23
2022-10-11T14:27:42.831Z,10.65
2022-10-11T14:30:26.244Z,9.88
2022-10-11T14:32:57.986Z,12.45
2022-10-11T14:35:32.473Z,14.52
2022-10-11T14:38:00.442Z,9.80
2022-10-11T14:40:29.102Z,10.80
2022-10-11T14:42:57.032Z,7.75
2022-10-11T14:45:25.026Z,14.07
2022-10-11T14:47:53.005Z,8.27
2022-10-11T14:50:27.551Z,11.10
2022-10-11T14:52:55.830Z,13.35
2022-10-11T14:55:23.761Z,12.63
2022-10-11T14:57:51.595Z,13.20
2022-10-11T15:00:22.490Z,15.55
2022-10-11T15:02:50.619Z,17.23
2022-10-11T15:05:18.524Z,11.82
2022-10-11T15:07:47.807Z,12.55
2022-10-11T15:10:20.360Z,10.98
2022-10-11T15:12:48.468Z,16.40
2022-10-11T15:15:20.529Z,14.82
2022-10-11T15:17:49.307Z,11.13
2022-10-11T15:20:22.186Z,15.68
2022-10-11T15:22:51.858Z,15.32
2022-10-11T15:25:20.050Z,15.40
2022-10-11T15:27:48.185Z,13.25
2022-10-11T15:30:17.532Z,16.70
2022-10-11T15:32:46.995Z,9.60
2022-10-11T15:35:15.464Z,9.40
2022-10-11T15:37:43.405Z,13.73
2022-10-11T15:42:41.430Z,12.77
2022-10-11T15:45:09.818Z,11.95
2022-10-11T15:47:37.686Z,11.65
2022-10-11T15:55:01.180Z,14.18
2022-10-11T16:02:26.129Z,21.17
2022-10-11T16:04:54.257Z,14.48
2022-10-11T16:07:22.357Z,18.42
2022-10-11T16:09:50.337Z,21.20
2022-10-11T16:14:47.306Z,16.05
2022-10-11T16:17:15.525Z,7.97
2022-10-11T16:19:44.862Z,18.88
2022-10-11T16:22:12.864Z,11.38
2022-10-11T16:27:08.988Z,11.95
2022-10-11T16:32:04.947Z,19.60
2022-10-11T16:34:33.465Z,11.65
2022-10-11T16:37:02.239Z,20.00
2022-10-11T16:39:29.667Z,15.80
2022-10-11T16:44:27.635Z,12.95
2022-10-11T16:46:55.709Z,15.65
2022-10-11T16:49:24.072Z,15.70
2022-10-11T16:51:52.294Z,14.50
2022-10-11T16:54:21.344Z,20.15
2022-10-11T16:56:48.929Z,19.95
2022-10-11T16:59:16.396Z,12.82
2022-10-11T17:01:44.969Z,16.25
2022-10-11T17:04:12.967Z,13.52
2022-10-11T17:09:08.495Z,16.23
2022-10-11T17:11:37.353Z,16.60
2022-10-11T17:14:05.788Z,18.05
2022-10-11T17:16:33.314Z,15.13
2022-10-11T17:19:00.694Z,16.08
2022-10-11T17:21:28.103Z,30.15
2022-10-11T17:23:55.472Z,16.70
2022-10-11T17:26:24.927Z,21.73
2022-10-11T17:28:53.917Z,16.02
2022-10-11T17:31:21.381Z,17.58
2022-10-11T17:33:48.839Z,18.30
2022-10-11T17:36:19.487Z,13.55
2022-10-11T17:38:46.921Z,21.48
2022-10-11T17:41:14.716Z,12.13
2022-10-11T17:43:42.145Z,13.23
2022-10-11T17:46:12.021Z,22.67
2022-10-11T17:48:39.901Z,17.33
2022-10-11T17:53:35.237Z,19.05
2022-10-11T17:56:04.987Z,16.27
2022-10-11T17:58:32.384Z,30.45
2022-10-11T18:01:02.156Z,25.52
2022-10-11T18:03:31.018Z,20.80
2022-10-11T18:05:58.519Z,26.98
2022-10-11T18:08:25.905Z,18.88
2022-10-11T18:10:53.297Z,28.42
2022-10-11T18:13:20.645Z,22.27
2022-10-11T18:15:52.713Z,26.30
2022-10-11T18:18:20.966Z,35.92
2022-10-11T18:20:50.076Z,24.42
2022-10-11T18:23:18.187Z,31.48
2022-10-11T18:25:45.658Z,29.27
2022-10-11T18:28:13.664Z,19.63
2022-10-11T18:33:08.338Z,34.75
2022-10-11T18:35:35.707Z,19.48
2022-10-11T18:38:04.568Z,22.23
2022-10-11T18:40:31.976Z,23.63
2022-10-11T18:42:59.361Z,21.88
2022-10-11T18:45:26.826Z,18.77
2022-10-11T18:47:54.225Z,19.35
2022-10-11T18:50:21.645Z,23.45
2022-10-11T18:52:49.725Z,27.88
2022-10-11T18:57:45.883Z,20.85
2022-10-11T19:00:37.793Z,27.38
2022-10-11T19:03:01.205Z,32.95
2022-10-11T19:05:28.578Z,32.35
2022-10-11T19:07:55.980Z,30.08
2022-10-11T19:10:23.343Z,39.67
2022-10-11T19:12:52.059Z,30.60
2022-10-11T19:15:19.540Z,38.03
2022-10-11T19:17:46.953Z,33.65
2022-10-11T19:20:14.317Z,34.08
2022-10-11T19:22:41.679Z,38.38
2022-10-11T19:25:09.219Z,38.25
2022-10-11T19:27:36.623Z,39.60
2022-10-11T19:30:05.815Z,29.05
2022-10-11T19:32:36.327Z,34.53
2022-10-11T19:35:03.742Z,35.83
2022-10-11T19:37:31.409Z,32.70
2022-10-11T19:39:58.946Z,33.25
2022-10-11T19:42:26.541Z,29.58
2022-10-11T19:44:53.908Z,33.05
2022-10-11T19:47:22.894Z,26.42
2022-10-11T19:49:50.292Z,27.10
2022-10-11T19:52:17.679Z,28.15
2022-10-11T19:54:45.257Z,27.77
2022-10-11T19:57:14.949Z,26.85
2022-10-11T19:59:42.651Z,23.15
2022-10-11T20:02:10.484Z,32.67
2022-10-11T20:04:52.006Z,29.90
2022-10-11T20:07:19.657Z,21.02
2022-10-11T20:09:47.051Z,27.05
2022-10-11T20:12:14.443Z,24.83
2022-10-11T20:14:41.816Z,18.65
2022-10-11T20:17:09.158Z,30.17
2022-10-11T20:19:36.537Z,21.17
2022-10-11T20:22:05.252Z,21.10
2022-10-11T20:24:34.232Z,27.88
2022-10-11T20:27:02.119Z,22.48
2022-10-11T20:29:29.454Z,18.90
2022-10-11T20:31:58.717Z,20.00
2022-10-11T20:34:27.094Z,24.88
2022-10-11T20:36:54.431Z,26.40
2022-10-11T20:39:23.595Z,24.02
2022-10-11T20:41:51.064Z,18.30
2022-10-11T20:44:18.527Z,25.05
2022-10-11T20:46:45.893Z,30.55
2022-10-11T20:49:13.360Z,24.45
2022-10-11T20:51:42.276Z,20.80
2022-10-11T20:54:09.952Z,24.75
2022-10-11T20:56:38.942Z,21.73
2022-10-11T20:59:07.865Z,27.60
2022-10-11T21:04:02.838Z,24.75
2022-10-11T21:06:31.059Z,19.95
2022-10-11T21:08:59.258Z,22.35
2022-10-11T21:11:27.109Z,24.83
2022-10-11T21:13:57.454Z,28.23
2022-10-11T21:16:24.835Z,31.98
2022-10-11T21:18:52.652Z,29.48
2022-10-11T21:21:20.353Z,18.60
2022-10-11T21:23:47.991Z,29.95
2022-10-11T21:26:17.837Z,23.67
2022-10-11T21:28:46.043Z,33.35
2022-10-11T21:31:15.695Z,31.92
2022-10-11T21:33:43.647Z,21.13
2022-10-11T21:38:38.266Z,24.95
2022-10-11T21:41:07.556Z,20.35
2022-10-11T21:43:35.634Z,22.38
2022-10-11T21:46:08.373Z,25.10
2022-10-11T21:48:37.064Z,20.55
2022-10-11T21:51:04.570Z,20.63
2022-10-11T21:53:31.968Z,27.35
2022-10-11T21:55:59.815Z,22.45
2022-10-11T21:58:27.392Z,23.73
2022-10-11T22:00:54.916Z,27.45
2022-10-11T22:03:22.304Z,23.45
2022-10-11T22:05:51.020Z,20.13
2022-10-11T22:08:18.895Z,17.73
2022-10-11T22:13:13.532Z,22.83
2022-10-11T22:15:40.936Z,26.08
2022-10-11T22:18:08.318Z,16.23
2022-10-11T22:20:35.693Z,22.70
2022-10-11T22:23:04.536Z,20.02
2022-10-11T22:25:31.891Z,24.58
2022-10-11T22:27:59.241Z,21.00
2022-10-11T22:30:26.637Z,19.52
2022-10-11T22:32:54.034Z,21.77
2022-10-11T22:35:21.519Z,22.00
2022-10-11T22:37:50.175Z,25.35
2022-10-11T22:40:18.932Z,26.75
2022-10-11T22:42:46.296Z,21.80
2022-10-11T22:45:13.741Z,25.83
2022-10-11T22:47:41.140Z,23.30
2022-10-11T22:50:08.848Z,22.92
2022-10-11T22:52:36.187Z,25.45
2022-10-11T22:55:03.549Z,21.65
2022-10-11T22:57:32.266Z,21.95
2022-10-11T22:59:59.653Z,17.98
2022-10-11T23:02:26.999Z,16.98
2022-10-11T23:04:54.445Z,16.90
2022-10-11T23:07:21.782Z,24.50
2022-10-11T23:09:49.172Z,15.77
2022-10-11T23:12:16.519Z,25.77
2022-10-11T23:14:45.244Z,19.98
2022-10-11T23:17:12.614Z,22.17
2022-10-11T23:19:39.975Z,22.95
2022-10-11T23:22:07.315Z,24.80
2022-10-11T23:24:34.670Z,22.45
2022-10-11T23:27:02.031Z,20.73
2022-10-11T23:29:30.392Z,21.10
2022-10-11T23:31:59.425Z,18.00
2022-10-11T23:34:26.917Z,21.98
2022-10-11T23:36:54.292Z,16.35
2022-10-11T23:39:21.775Z,17.55
2022-10-11T23:41:49.140Z,20.02
2022-10-11T23:44:16.509Z,22.05
2022-10-11T23:46:43.854Z,18.73
2022-10-11T23:49:12.539Z,18.33
2022-10-11T23:51:39.980Z,15.88
2022-10-11T23:54:07.448Z,17.23
2022-10-11T23:56:34.790Z,17.42
2022-10-11T23:59:02.151Z,23.50
